Time;durP1;ratioP1;P1;durP2;ratioP2;P2;SDS_P1;SDS_P2;PMS_P1;PMS_P2;Temp;Humidity;BMP_temperature;BMP_pressure;BME280_temperature;BME280_humidity;BME280_pressure;Samples;Min_cycle;Max_cycle;Signal;HPM_P1;HPM_P2
2020/12/01 00:00:01;;;;;;;3.30;1.10;;;9.70;99.90;;;;;;5070028;28;20185;-39
2020/12/01 00:02:32;;;;;;;2.30;1.20;;;9.70;99.90;;;;;;5074296;28;20737;-37
2020/12/01 00:05:02;;;;;;;3.22;1.40;;;9.50;99.90;;;;;;5070169;28;20687;-37
2020/12/01 00:07:32;;;;;;;2.83;1.70;;;9.50;99.90;;;;;;5060048;28;20190;-38
2020/12/01 00:10:04;;;;;;;2.45;1.10;;;9.40;99.90;;;;;;5071166;28;20194;-38
2020/12/01 00:12:36;;;;;;;3.83;1.55;;;9.30;99.90;;;;;;5077961;28;20537;-37
2020/12/01 00:15:06;;;;;;;2.55;1.48;;;9.20;99.90;;;;;;5069195;28;20296;-36
2020/12/01 00:17:36;;;;;;;3.97;1.40;;;9.10;99.90;;;;;;5077742;28;20216;-38
2020/12/01 00:20:08;;;;;;;2.92;1.60;;;9.00;99.90;;;;;;5079605;28;20654;-36
2020/12/01 00:22:38;;;;;;;6.43;1.48;;;8.90;99.90;;;;;;5078836;28;20221;-35
2020/12/01 00:25:13;;;;;;;4.22;1.80;;;8.80;99.90;;;;;;5076840;28;20220;-38
2020/12/01 00:27:45;;;;;;;3.45;1.38;;;8.70;99.90;;;;;;5074523;28;20185;-31
2020/12/01 00:30:17;;;;;;;2.42;1.55;;;8.70;99.90;;;;;;5059615;28;20227;-37
2020/12/01 00:32:48;;;;;;;4.32;1.85;;;8.60;99.90;;;;;;5076931;28;20196;-33
2020/12/01 00:35:19;;;;;;;4.97;2.47;;;8.60;99.90;;;;;;5069611;28;20234;-36
2020/12/01 00:37:50;;;;;;;3.03;2.20;;;8.60;99.90;;;;;;5059272;28;20209;-36
2020/12/01 00:40:22;;;;;;;4.57;2.00;;;8.50;99.90;;;;;;5064302;28;20190;-34
2020/12/01 00:42:55;;;;;;;5.72;2.25;;;8.40;99.90;;;;;;5052671;28;20880;-37
2020/12/01 00:45:25;;;;;;;2.78;1.88;;;8.30;99.90;;;;;;5089125;28;20602;-37
2020/12/01 00:47:55;;;;;;;4.90;2.47;;;8.20;99.90;;;;;;5079122;28;20555;-37
2020/12/01 00:50:26;;;;;;;3.70;2.20;;;8.10;99.90;;;;;;5092989;28;20188;-36
2020/12/01 00:52:56;;;;;;;5.30;2.83;;;8.00;99.90;;;;;;5074372;28;20198;-37
2020/12/01 00:55:27;;;;;;;4.53;2.38;;;8.00;99.90;;;;;;5075481;28;20193;-37
2020/12/01 00:57:58;;;;;;;4.95;2.88;;;7.80;99.90;;;;;;5074022;28;20771;-36
2020/12/01 01:00:31;;;;;;;4.43;2.60;;;7.70;99.90;;;;;;5086697;28;20627;-35
2020/12/01 01:03:02;;;;;;;4.60;2.70;;;7.60;99.90;;;;;;5078031;28;20716;-35
2020/12/01 01:05:32;;;;;;;5.18;2.58;;;7.50;99.90;;;;;;5077869;28;20652;-35
2020/12/01 01:08:02;;;;;;;4.75;2.65;;;7.40;99.90;;;;;;5071676;28;20197;-36
2020/12/01 01:10:34;;;;;;;5.82;2.95;;;7.40;99.90;;;;;;5064829;28;20644;-37
2020/12/01 01:13:05;;;;;;;7.50;3.50;;;7.40;99.90;;;;;;5087516;28;20235;-36
2020/12/01 01:15:37;;;;;;;6.05;3.90;;;7.30;99.90;;;;;;5062203;28;20204;-39
2020/12/01 01:18:08;;;;;;;52.60;11.73;;;7.20;99.90;;;;;;5078101;28;20205;-38
2020/12/01 01:20:38;;;;;;;12.45;6.32;;;7.30;99.90;;;;;;5075849;28;20220;-36
2020/12/01 01:23:09;;;;;;;1037.00;167.13;;;7.20;99.90;;;;;;5074951;28;20193;-37
2020/12/01 01:25:39;;;;;;;504.50;79.03;;;7.20;99.90;;;;;;5074000;28;20252;-39
2020/12/01 01:28:11;;;;;;;15.98;13.02;;;7.30;99.90;;;;;;5087213;28;20246;-36
2020/12/01 01:30:41;;;;;;;14.98;11.35;;;7.20;99.90;;;;;;5085889;28;20201;-37
2020/12/01 01:33:13;;;;;;;14.68;12.05;;;7.00;99.90;;;;;;5076698;28;20710;-37
2020/12/01 01:35:43;;;;;;;16.70;12.20;;;6.90;99.90;;;;;;5074089;28;20676;-38
2020/12/01 01:38:13;;;;;;;13.05;10.65;;;6.80;99.90;;;;;;5077315;28;20193;-38
2020/12/01 01:40:43;;;;;;;14.85;12.73;;;6.70;99.90;;;;;;5081056;28;20261;-32
2020/12/01 01:43:15;;;;;;;12.52;11.43;;;6.60;99.90;;;;;;5090470;28;20247;-35
2020/12/01 01:45:47;;;;;;;15.45;12.85;;;6.50;99.90;;;;;;5078121;28;20283;-37
2020/12/01 01:48:21;;;;;;;13.50;10.50;;;6.40;99.90;;;;;;5071866;28;20198;-37
2020/12/01 01:51:00;;;;;;;12.93;9.02;;;6.40;99.90;;;;;;5085817;28;20189;-32
2020/12/01 01:53:33;;;;;;;14.45;10.82;;;6.40;99.90;;;;;;5069850;28;20257;-38
2020/12/01 01:56:07;;;;;;;12.50;9.73;;;6.40;99.90;;;;;;5066311;28;20186;-39
2020/12/01 01:58:41;;;;;;;10.57;7.00;;;6.40;99.90;;;;;;5055020;28;20185;-37
2020/12/01 02:01:13;;;;;;;220.95;37.95;;;6.30;99.90;;;;;;5078150;28;20193;-36
2020/12/01 02:03:46;;;;;;;105.45;20.45;;;6.40;99.90;;;;;;5086611;28;20601;-40
2020/12/01 02:06:20;;;;;;;10.57;6.88;;;6.50;99.90;;;;;;5090319;28;20695;-36
2020/12/01 02:08:53;;;;;;;12.27;6.45;;;6.40;99.90;;;;;;5075324;28;20643;-37
2020/12/01 02:11:24;;;;;;;12.27;7.20;;;6.40;99.90;;;;;;5074269;28;20239;-38
2020/12/01 02:14:05;;;;;;;9.80;7.63;;;6.30;99.90;;;;;;5084082;28;20238;-38
2020/12/01 02:16:37;;;;;;;10.10;7.55;;;6.20;99.90;;;;;;5087160;28;20200;-38
2020/12/01 02:19:08;;;;;;;10.77;7.88;;;6.10;99.90;;;;;;5077662;28;20200;-34
2020/12/01 02:21:40;;;;;;;14.00;8.40;;;6.10;99.90;;;;;;5079268;28;20450;-37
2020/12/01 02:24:15;;;;;;;10.60;8.25;;;6.10;99.90;;;;;;5070236;28;20202;-37
2020/12/01 02:26:49;;;;;;;14.35;8.25;;;5.90;99.90;;;;;;5066330;28;20232;-38
2020/12/01 02:29:22;;;;;;;11.05;7.80;;;5.90;99.90;;;;;;5081607;28;20212;-38
2020/12/01 02:31:52;;;;;;;11.27;9.55;;;5.90;99.90;;;;;;5083133;28;20189;-37
2020/12/01 02:34:25;;;;;;;12.95;8.13;;;5.80;99.90;;;;;;5076784;28;20547;-39
2020/12/01 02:36:55;;;;;;;12.00;8.95;;;5.70;99.90;;;;;;5070750;28;20189;-37
2020/12/01 02:39:28;;;;;;;11.77;8.90;;;5.70;99.90;;;;;;5071903;28;20196;-38
2020/12/01 02:42:00;;;;;;;12.40;8.48;;;5.70;99.90;;;;;;5074435;28;20232;-36
2020/12/01 02:44:31;;;;;;;1749.88;320.23;;;5.70;99.90;;;;;;5075072;28;20198;-36
2020/12/01 02:47:04;;;;;;;10.77;8.75;;;5.80;99.90;;;;;;5069146;28;20209;-39
2020/12/01 02:49:35;;;;;;;15.43;9.65;;;5.70;99.90;;;;;;5061248;28;20201;-34
2020/12/01 02:52:06;;;;;;;13.93;9.38;;;5.60;99.90;;;;;;5054830;28;20217;-35
2020/12/01 02:54:36;;;;;;;10.40;8.73;;;5.60;99.90;;;;;;5054624;28;20198;-37
2020/12/01 02:57:08;;;;;;;19.48;9.00;;;5.50;99.90;;;;;;5060422;28;20288;-37
2020/12/01 02:59:38;;;;;;;10.80;9.13;;;5.40;99.90;;;;;;5063103;28;20219;-39
2020/12/01 03:02:08;;;;;;;11.50;9.50;;;5.40;99.90;;;;;;5059061;28;20281;-38
2020/12/01 03:04:38;;;;;;;24.25;13.38;;;5.30;99.90;;;;;;5061456;28;20224;-37
2020/12/01 03:07:09;;;;;;;18.88;16.23;;;5.40;99.90;;;;;;5079603;28;20216;-35
2020/12/01 03:09:39;;;;;;;25.10;21.05;;;5.30;99.90;;;;;;5078904;28;20300;-39
2020/12/01 03:12:11;;;;;;;23.40;20.90;;;5.20;99.90;;;;;;5062920;28;20190;-37
2020/12/01 03:14:41;;;;;;;21.25;17.80;;;5.20;99.90;;;;;;5064849;28;20198;-39
2020/12/01 03:17:11;;;;;;;29.20;22.92;;;5.20;99.90;;;;;;5070814;28;20577;-39
2020/12/01 03:19:42;;;;;;;1981.13;413.50;;;5.20;99.90;;;;;;5059793;28;20575;-32
2020/12/01 03:22:12;;;;;;;1999.90;377.67;;;5.30;99.90;;;;;;5056347;28;20313;-36
2020/12/01 03:24:42;;;;;;;24.98;22.10;;;5.40;99.90;;;;;;5066795;28;20201;-38
2020/12/01 03:27:13;;;;;;;24.98;21.90;;;5.40;99.90;;;;;;5074447;28;20228;-37
2020/12/01 03:29:43;;;;;;;21.55;17.27;;;5.30;99.90;;;;;;5069408;28;20193;-38
2020/12/01 03:32:13;;;;;;;23.70;18.10;;;5.20;99.90;;;;;;5086151;28;20681;-36
2020/12/01 03:34:44;;;;;;;23.38;15.07;;;5.20;99.90;;;;;;5073608;28;20196;-36
2020/12/01 03:37:14;;;;;;;18.60;15.93;;;5.10;99.90;;;;;;5059461;28;20685;-32
2020/12/01 03:39:44;;;;;;;19.38;15.10;;;5.20;99.90;;;;;;5066401;28;20197;-33
2020/12/01 03:42:15;;;;;;;22.10;16.55;;;5.10;99.90;;;;;;5070310;28;20236;-38
2020/12/01 03:44:46;;;;;;;23.67;19.13;;;5.10;99.90;;;;;;5076342;28;20249;-38
2020/12/01 03:47:16;;;;;;;23.38;17.10;;;5.10;99.90;;;;;;5078031;28;20224;-36
2020/12/01 03:49:46;;;;;;;19.08;16.92;;;5.00;99.90;;;;;;5084938;28;20624;-37
2020/12/01 03:52:16;;;;;;;20.95;17.58;;;5.00;99.90;;;;;;5069716;28;20211;-37
2020/12/01 03:54:46;;;;;;;23.15;19.58;;;5.00;99.90;;;;;;5068503;28;20255;-39
2020/12/01 03:57:18;;;;;;;23.33;20.25;;;4.90;99.90;;;;;;5068467;28;20246;-38
2020/12/01 03:59:48;;;;;;;27.25;21.92;;;4.90;99.90;;;;;;5070955;28;20217;-39
2020/12/01 04:02:18;;;;;;;27.80;21.88;;;4.90;99.90;;;;;;5064921;28;20227;-39
2020/12/01 04:04:48;;;;;;;1956.32;342.98;;;5.00;99.90;;;;;;5073563;28;20318;-38
2020/12/01 04:07:18;;;;;;;1973.97;500.27;;;5.00;99.90;;;;;;5070278;28;20225;-38
2020/12/01 04:09:48;;;;;;;1637.38;301.05;;;5.10;99.90;;;;;;5066624;28;20189;-37
2020/12/01 04:12:20;;;;;;;26.60;23.55;;;5.00;99.90;;;;;;5076256;28;20198;-35
2020/12/01 04:14:50;;;;;;;26.13;22.25;;;4.90;99.90;;;;;;5077560;28;20185;-37
2020/12/01 04:17:20;;;;;;;23.50;21.00;;;4.80;99.90;;;;;;5075332;28;20193;-38
2020/12/01 04:19:51;;;;;;;24.10;21.35;;;4.70;99.90;;;;;;5070330;28;20221;-36
2020/12/01 04:22:21;;;;;;;23.70;19.60;;;4.70;99.90;;;;;;5078152;28;20645;-33
2020/12/01 04:24:51;;;;;;;25.13;21.63;;;4.70;99.90;;;;;;5089579;28;20193;-37
2020/12/01 04:27:23;;;;;;;20.80;18.63;;;4.70;99.90;;;;;;5086769;28;20213;-37
2020/12/01 04:29:53;;;;;;;24.02;21.30;;;4.60;99.90;;;;;;5071688;28;20637;-34
2020/12/01 04:32:23;;;;;;;27.60;21.60;;;4.60;99.90;;;;;;5061963;28;20208;-36
2020/12/01 04:34:54;;;;;;;26.58;23.83;;;4.50;99.90;;;;;;5068493;28;20205;-36
2020/12/01 04:37:24;;;;;;;29.65;26.45;;;4.50;99.90;;;;;;5077194;28;20201;-37
2020/12/01 04:39:54;;;;;;;29.35;23.70;;;4.50;99.90;;;;;;5062002;28;20232;-36
2020/12/01 04:42:27;;;;;;;28.50;24.55;;;4.50;99.90;;;;;;5092850;28;20291;-35
2020/12/01 04:45:02;;;;;;;29.48;26.35;;;4.50;99.90;;;;;;5081209;28;20189;-34
2020/12/01 04:47:36;;;;;;;34.63;29.05;;;4.40;99.90;;;;;;5070013;28;20273;-37
2020/12/01 04:50:09;;;;;;;33.40;29.80;;;4.40;99.90;;;;;;5071053;28;20214;-36
2020/12/01 04:53:08;;;;;;;36.95;32.38;;;4.30;99.90;;;;;;5080573;28;20678;-34
2020/12/01 04:56:00;;;;;;;928.90;179.57;;;4.30;99.90;;;;;;5065078;28;20618;-37
2020/12/01 04:58:56;;;;;;;35.33;29.42;;;4.40;99.90;;;;;;5069023;28;20208;-37
2020/12/01 05:02:09;;;;;;;47.95;33.28;;;4.40;99.90;;;;;;5059869;28;20195;-39
2020/12/01 05:04:48;;;;;;;1999.90;772.15;;;4.40;99.90;;;;;;5063255;28;20243;-35
2020/12/01 05:07:30;;;;;;;46.20;37.13;;;4.60;99.90;;;;;;5074442;28;20672;-34
2020/12/01 05:10:04;;;;;;;42.97;33.75;;;4.50;99.90;;;;;;5075843;28;20190;-38
2020/12/01 05:12:38;;;;;;;33.42;29.35;;;4.30;99.90;;;;;;5089541;28;20254;-36
2020/12/01 05:15:17;;;;;;;36.60;30.00;;;4.30;99.90;;;;;;5066179;28;20189;-39
2020/12/01 05:18:16;;;;;;;31.52;28.13;;;4.30;99.90;;;;;;5073217;28;20319;-34
2020/12/01 05:20:49;;;;;;;38.00;30.10;;;4.20;99.90;;;;;;5070115;28;20212;-33
2020/12/01 05:23:25;;;;;;;43.15;36.08;;;4.10;99.90;;;;;;5070733;28;20663;-37
2020/12/01 05:26:04;;;;;;;38.78;32.72;;;4.10;99.90;;;;;;5068924;28;20208;-36
2020/12/01 05:28:44;;;;;;;44.83;34.90;;;4.10;99.90;;;;;;5083769;28;20182;-35
2020/12/01 05:31:18;;;;;;;41.60;32.50;;;4.00;99.90;;;;;;5072050;28;20351;-36
2020/12/01 05:34:01;;;;;;;39.53;33.60;;;3.90;99.90;;;;;;5072409;28;20197;-36
2020/12/01 05:36:33;;;;;;;35.95;30.38;;;3.90;99.90;;;;;;5057197;28;20186;-36
2020/12/01 05:39:07;;;;;;;37.38;31.08;;;3.90;99.90;;;;;;5071371;28;20524;-39
2020/12/01 05:41:38;;;;;;;40.60;32.05;;;3.90;99.90;;;;;;5072318;28;20240;-38
2020/12/01 05:44:18;;;;;;;38.45;34.03;;;3.90;99.90;;;;;;5079402;28;20284;-36
2020/12/01 05:46:53;;;;;;;41.92;34.38;;;3.90;99.90;;;;;;5060641;28;20211;-34
2020/12/01 05:49:36;;;;;;;46.28;32.47;;;3.90;99.90;;;;;;5070542;28;20189;-39
2020/12/01 05:52:12;;;;;;;40.13;32.97;;;3.80;99.90;;;;;;5064055;28;20193;-35
2020/12/01 05:54:44;;;;;;;38.17;33.13;;;3.80;99.90;;;;;;5090280;28;20199;-34
2020/12/01 05:57:23;;;;;;;43.28;34.55;;;3.80;99.90;;;;;;5081887;28;20207;-39
2020/12/01 05:59:55;;;;;;;50.45;38.65;;;3.80;99.90;;;;;;5084204;28;20189;-38
2020/12/01 06:02:37;;;;;;;46.13;36.88;;;3.80;99.90;;;;;;5071177;28;20186;-37
2020/12/01 06:05:10;;;;;;;44.90;37.97;;;3.70;99.90;;;;;;5070068;28;20189;-37
2020/12/01 06:07:44;;;;;;;41.63;34.95;;;3.70;99.90;;;;;;5059780;28;20221;-35
2020/12/01 06:10:35;;;;;;;35.85;32.05;;;3.70;99.90;;;;;;5073081;28;20197;-35
2020/12/01 06:13:30;;;;;;;38.10;29.75;;;3.60;99.90;;;;;;5082001;28;20197;-39
2020/12/01 06:16:29;;;;;;;34.38;28.70;;;3.60;99.90;;;;;;5067492;28;20209;-38
2020/12/01 06:19:10;;;;;;;38.53;29.92;;;3.60;99.90;;;;;;5081462;28;20251;-35
2020/12/01 06:22:16;;;;;;;33.92;29.70;;;3.60;99.90;;;;;;5057674;28;20642;-34
2020/12/01 06:25:32;;;;;;;42.22;31.55;;;3.60;99.90;;;;;;5057921;28;20625;-36
2020/12/01 06:28:54;;;;;;;34.67;30.63;;;3.50;99.90;;;;;;5044577;28;20193;-38
2020/12/01 06:31:45;;;;;;;33.75;29.38;;;3.50;99.90;;;;;;5070985;28;20507;-35
2020/12/01 06:35:11;;;;;;;32.92;28.05;;;3.40;99.90;;;;;;5071431;28;20197;-33
2020/12/01 06:37:59;;;;;;;35.28;28.75;;;3.40;99.90;;;;;;5065690;28;20263;-33
2020/12/01 06:40:38;;;;;;;36.05;28.65;;;3.30;99.90;;;;;;5082581;28;20201;-36
2020/12/01 06:43:15;;;;;;;30.65;27.17;;;3.40;99.90;;;;;;5073578;28;20290;-40
2020/12/01 06:45:48;;;;;;;38.72;27.67;;;3.30;99.90;;;;;;5084773;28;20264;-36
2020/12/01 06:48:22;;;;;;;32.92;29.30;;;3.30;99.90;;;;;;5089656;28;20184;-38
2020/12/01 06:50:56;;;;;;;33.45;27.80;;;3.30;99.90;;;;;;5076508;28;20549;-31
2020/12/01 06:53:29;;;;;;;34.35;27.02;;;3.40;99.90;;;;;;5071039;28;20743;-36
2020/12/01 06:56:01;;;;;;;36.35;27.30;;;3.20;99.90;;;;;;5075488;28;20193;-35
2020/12/01 06:58:40;;;;;;;34.35;27.38;;;3.30;99.90;;;;;;5069839;28;20295;-38
2020/12/01 07:01:25;;;;;;;31.80;25.55;;;3.30;99.90;;;;;;5070291;28;20216;-38
2020/12/01 07:04:18;;;;;;;32.53;29.02;;;3.20;99.90;;;;;;5055632;28;20624;-36
2020/12/01 07:06:51;;;;;;;33.42;26.48;;;3.30;99.90;;;;;;5067251;28;20248;-40
2020/12/01 07:09:26;;;;;;;33.65;28.10;;;3.20;99.90;;;;;;5069796;28;20196;-36
2020/12/01 07:12:33;;;;;;;32.47;28.25;;;3.20;99.90;;;;;;5062625;28;20192;-33
2020/12/01 07:15:14;;;;;;;40.90;31.65;;;3.10;99.90;;;;;;5049884;28;20197;-39
2020/12/01 07:17:53;;;;;;;41.80;33.67;;;3.10;99.90;;;;;;5056918;28;20189;-37
2020/12/01 07:20:37;;;;;;;42.92;30.58;;;3.10;99.90;;;;;;5073856;28;20220;-37
2020/12/01 07:23:30;;;;;;;35.42;31.45;;;3.10;99.90;;;;;;5069602;28;20609;-33
2020/12/01 07:26:16;;;;;;;37.15;31.10;;;3.00;99.90;;;;;;5068981;28;20283;-38
2020/12/01 07:29:04;;;;;;;42.60;35.88;;;3.00;99.90;;;;;;5083255;28;20321;-37
2020/12/01 07:31:36;;;;;;;41.42;34.08;;;3.10;99.90;;;;;;5063150;28;20181;-37
2020/12/01 07:34:20;;;;;;;32.55;28.52;;;3.10;99.90;;;;;;5076196;28;20699;-39
2020/12/01 07:36:53;;;;;;;23.42;20.58;;;3.10;99.90;;;;;;5068248;28;20193;-39
2020/12/01 07:39:26;;;;;;;26.67;23.85;;;3.00;99.90;;;;;;5068885;28;20219;-38
2020/12/01 07:41:58;;;;;;;28.00;22.38;;;2.90;99.90;;;;;;5069865;28;20697;-38
2020/12/01 07:44:34;;;;;;;24.60;21.05;;;2.80;99.90;;;;;;5051213;28;20190;-35
2020/12/01 07:47:07;;;;;;;27.08;24.08;;;2.80;99.90;;;;;;5077696;28;20291;-39
2020/12/01 07:49:38;;;;;;;29.98;26.60;;;2.80;99.90;;;;;;5070607;28;20633;-36
2020/12/01 07:52:19;;;;;;;31.08;23.92;;;2.80;99.90;;;;;;5061625;28;20263;-37
2020/12/01 07:55:00;;;;;;;32.13;27.52;;;2.70;99.90;;;;;;5071482;28;20224;-40
2020/12/01 07:57:30;;;;;;;30.30;27.30;;;2.80;99.90;;;;;;5083050;28;20261;-37
2020/12/01 08:00:04;;;;;;;32.45;26.80;;;2.80;99.90;;;;;;5070065;28;20310;-36
2020/12/01 08:02:34;;;;;;;32.28;26.42;;;2.80;99.90;;;;;;5078180;28;20648;-37
2020/12/01 08:05:08;;;;;;;29.27;26.20;;;2.80;99.90;;;;;;5070803;28;20196;-36
2020/12/01 08:07:38;;;;;;;30.58;27.25;;;2.80;99.90;;;;;;5067900;28;20209;-38
2020/12/01 08:10:10;;;;;;;32.05;26.42;;;2.80;99.90;;;;;;5085850;28;20189;-35
2020/12/01 08:12:43;;;;;;;32.67;25.95;;;2.80;99.90;;;;;;5082024;28;20271;-37
2020/12/01 08:15:17;;;;;;;30.80;26.50;;;2.80;99.90;;;;;;5080094;28;20194;-37
2020/12/01 08:17:47;;;;;;;31.70;25.40;;;2.70;99.90;;;;;;5069832;28;20197;-36
2020/12/01 08:20:23;;;;;;;27.13;24.23;;;2.80;99.90;;;;;;5063641;28;20323;-40
2020/12/01 08:23:04;;;;;;;27.15;23.52;;;2.70;99.90;;;;;;5067570;28;20208;-37
2020/12/01 08:25:48;;;;;;;26.85;24.00;;;2.60;99.90;;;;;;5065947;28;20307;-37
2020/12/01 08:28:28;;;;;;;30.38;23.63;;;2.70;99.90;;;;;;5079498;28;20245;-34
2020/12/01 08:31:11;;;;;;;31.25;24.73;;;2.60;99.90;;;;;;5060670;28;20189;-39
2020/12/01 08:34:00;;;;;;;28.02;24.33;;;2.60;99.90;;;;;;5073215;28;20261;-39
2020/12/01 08:36:49;;;;;;;25.67;22.45;;;2.60;99.90;;;;;;5056853;28;20251;-34
2020/12/01 08:39:50;;;;;;;24.45;21.40;;;2.50;99.90;;;;;;5045286;28;20193;-34
2020/12/01 08:42:39;;;;;;;30.08;21.75;;;2.40;99.90;;;;;;5088946;28;20232;-37
2020/12/01 08:45:31;;;;;;;27.48;21.77;;;2.40;99.90;;;;;;5065690;28;20238;-36
2020/12/01 08:48:05;;;;;;;21.05;18.50;;;2.40;99.90;;;;;;5080018;28;20223;-34
2020/12/01 08:50:37;;;;;;;23.25;19.80;;;2.40;99.90;;;;;;5075115;28;20188;-35
2020/12/01 08:53:11;;;;;;;24.85;19.92;;;2.40;99.90;;;;;;5092217;28;20287;-39
2020/12/01 08:55:50;;;;;;;22.40;18.92;;;2.50;99.90;;;;;;5074242;28;20198;-38
2020/12/01 08:58:36;;;;;;;24.02;19.23;;;2.50;99.90;;;;;;5082876;28;20196;-35
2020/12/01 09:01:09;;;;;;;22.10;19.40;;;2.50;99.90;;;;;;5082771;28;20189;-34
2020/12/01 09:03:52;;;;;;;24.75;18.67;;;2.50;99.90;;;;;;5083808;28;20255;-36
2020/12/01 09:06:24;;;;;;;21.63;17.98;;;2.40;99.90;;;;;;5058587;28;20759;-37
2020/12/01 09:08:58;;;;;;;19.65;17.55;;;2.50;99.90;;;;;;5079843;28;20256;-39
2020/12/01 09:11:57;;;;;;;22.33;17.25;;;2.40;99.90;;;;;;5070671;28;20629;-37
2020/12/01 09:14:44;;;;;;;23.00;16.58;;;2.30;99.90;;;;;;5070792;28;20208;-39
2020/12/01 09:17:24;;;;;;;19.83;16.55;;;2.30;99.90;;;;;;5060198;28;20193;-37
2020/12/01 09:23:06;;;;;;;19.40;15.85;;;2.20;99.90;;;;;;5072969;28;20198;-38
2020/12/01 09:25:38;;;;;;;18.70;16.80;;;2.30;99.90;;;;;;5074619;28;20204;-35
2020/12/01 09:28:14;;;;;;;16.90;15.27;;;2.30;99.90;;;;;;5072027;28;20216;-38
2020/12/01 09:30:45;;;;;;;18.13;16.23;;;2.30;99.90;;;;;;5063535;28;20205;-35
2020/12/01 09:33:17;;;;;;;16.25;14.57;;;2.20;99.90;;;;;;5051298;28;20194;-34
2020/12/01 09:35:49;;;;;;;18.25;14.98;;;2.10;99.90;;;;;;5081216;28;20187;-32
2020/12/01 09:38:19;;;;;;;18.42;16.60;;;2.00;99.90;;;;;;5090912;28;20197;-36
2020/12/01 09:40:51;;;;;;;20.45;17.48;;;2.00;99.90;;;;;;5082470;28;20231;-33
2020/12/01 09:43:27;;;;;;;22.02;16.67;;;2.10;99.90;;;;;;5069689;28;20259;-33
2020/12/01 09:46:02;;;;;;;19.52;17.10;;;2.10;99.90;;;;;;5071790;28;20189;-37
2020/12/01 09:48:35;;;;;;;21.60;17.60;;;2.10;99.90;;;;;;5071549;28;20239;-37
2020/12/01 09:51:07;;;;;;;24.17;17.95;;;2.10;99.90;;;;;;5070818;28;20189;-37
2020/12/01 09:53:46;;;;;;;18.63;16.83;;;2.10;99.90;;;;;;5060063;28;20217;-37
2020/12/01 10:10:39;;;;;;;19.02;16.88;;;1.80;99.90;;;;;;5083455;28;20186;-34
2020/12/01 10:13:27;;;;;;;24.27;16.88;;;1.90;99.90;;;;;;5070626;28;20274;-36
2020/12/01 10:34:21;;;;;;;55.80;20.50;;;2.50;99.90;;;;;;5066956;28;20243;-38
2020/12/01 10:36:52;;;;;;;67.05;21.60;;;2.50;99.90;;;;;;5056848;28;20284;-36
2020/12/01 10:39:23;;;;;;;22.05;17.00;;;2.60;99.90;;;;;;5068515;28;20263;-36
2020/12/01 10:41:54;;;;;;;30.58;18.67;;;2.70;99.90;;;;;;5070524;28;20308;-37
2020/12/01 10:44:24;;;;;;;33.70;18.92;;;2.70;99.90;;;;;;5086735;28;20193;-35
2020/12/01 10:46:55;;;;;;;97.80;23.05;;;2.80;99.90;;;;;;5075251;28;20224;-34
2020/12/01 10:49:25;;;;;;;161.57;27.63;;;2.80;99.90;;;;;;5081098;28;20754;-34
2020/12/01 10:51:55;;;;;;;131.63;26.88;;;3.00;99.90;;;;;;5083332;28;20196;-35
2020/12/01 10:54:26;;;;;;;86.20;25.25;;;3.10;99.90;;;;;;5088853;28;20203;-37
2020/12/01 10:56:58;;;;;;;56.35;20.25;;;3.10;99.90;;;;;;5065688;28;20263;-37
2020/12/01 10:59:28;;;;;;;66.28;21.52;;;3.30;99.90;;;;;;5067473;28;20192;-35
2020/12/01 11:01:59;;;;;;;54.53;20.75;;;3.30;99.90;;;;;;5078629;28;20229;-34
2020/12/01 11:04:29;;;;;;;55.72;20.42;;;3.20;99.90;;;;;;5075262;28;20609;-31
2020/12/01 11:06:59;;;;;;;89.60;20.92;;;3.30;99.90;;;;;;5061771;28;20220;-38
2020/12/01 11:09:29;;;;;;;133.82;22.77;;;3.40;99.90;;;;;;5082604;28;20418;-36
2020/12/01 11:12:01;;;;;;;66.80;18.85;;;3.40;99.90;;;;;;5053439;28;20217;-35
2020/12/01 11:14:31;;;;;;;37.63;14.10;;;3.50;99.90;;;;;;5082907;28;20206;-37
2020/12/01 11:17:01;;;;;;;122.43;21.08;;;3.60;99.90;;;;;;5053786;28;20205;-37
2020/12/01 11:19:31;;;;;;;107.40;18.92;;;3.60;99.90;;;;;;5076898;28;20781;-33
2020/12/01 11:22:03;;;;;;;129.48;21.13;;;3.60;99.90;;;;;;5079031;28;20204;-36
2020/12/01 11:24:33;;;;;;;84.13;18.13;;;3.70;99.90;;;;;;5082699;28;20617;-36
2020/12/01 11:27:05;;;;;;;66.00;16.80;;;3.60;99.90;;;;;;5073737;28;20215;-36
2020/12/01 11:29:36;;;;;;;32.30;12.45;;;3.70;99.90;;;;;;5082431;28;20198;-38
2020/12/01 11:32:07;;;;;;;38.85;13.18;;;3.60;99.90;;;;;;5075185;28;20662;-32
2020/12/01 11:34:38;;;;;;;66.57;16.90;;;3.70;99.90;;;;;;5071411;28;20196;-35
2020/12/01 11:37:08;;;;;;;56.17;13.50;;;3.70;99.90;;;;;;5053960;28;20202;-35
2020/12/01 11:39:38;;;;;;;70.65;16.58;;;3.70;99.90;;;;;;5057117;28;20538;-35
2020/12/01 11:42:09;;;;;;;16.00;10.23;;;3.80;99.90;;;;;;5058536;28;20234;-35
2020/12/01 11:44:39;;;;;;;46.55;14.10;;;3.60;99.90;;;;;;5064580;28;20219;-36
2020/12/01 11:47:09;;;;;;;44.15;12.90;;;3.60;99.90;;;;;;5086833;28;20267;-38
2020/12/01 11:49:40;;;;;;;29.38;11.73;;;3.70;99.90;;;;;;5070290;28;20220;-38
2020/12/01 11:52:10;;;;;;;49.47;13.75;;;3.70;99.90;;;;;;5080513;28;20204;-35
2020/12/01 11:54:40;;;;;;;90.75;15.95;;;3.70;99.90;;;;;;5075589;28;20601;-36
2020/12/01 11:57:11;;;;;;;183.02;19.83;;;3.80;99.90;;;;;;5088618;28;20722;-35
2020/12/01 11:59:41;;;;;;;135.65;20.13;;;3.70;99.90;;;;;;5081918;28;20193;-36
2020/12/01 12:02:12;;;;;;;44.38;11.70;;;3.70;99.90;;;;;;5081545;28;20288;-39
2020/12/01 12:04:54;;;;;;;67.68;13.82;;;3.70;99.90;;;;;;5073929;28;20193;-37
2020/12/01 12:07:24;;;;;;;144.90;19.08;;;3.60;99.90;;;;;;5052589;28;20278;-37
2020/12/01 12:09:55;;;;;;;93.47;16.52;;;3.70;99.90;;;;;;5066508;28;20206;-35
2020/12/01 12:12:26;;;;;;;66.22;14.93;;;3.70;99.90;;;;;;5067168;28;20197;-38
2020/12/01 12:14:56;;;;;;;67.07;15.35;;;3.70;99.90;;;;;;5065052;28;20189;-34
2020/12/01 12:17:27;;;;;;;22.88;10.75;;;3.80;99.90;;;;;;5084215;28;20232;-37
2020/12/01 12:19:57;;;;;;;49.13;13.32;;;3.80;99.90;;;;;;5062033;28;20217;-36
2020/12/01 12:22:27;;;;;;;25.20;10.35;;;3.80;99.90;;;;;;5084598;28;20550;-36
2020/12/01 12:24:58;;;;;;;38.33;10.98;;;3.80;99.90;;;;;;5092850;28;20623;-38
2020/12/01 12:27:29;;;;;;;79.93;13.10;;;3.70;99.90;;;;;;5065806;28;20208;-36
2020/12/01 12:29:59;;;;;;;100.18;14.52;;;3.70;99.90;;;;;;5080127;28;20189;-33
2020/12/01 12:32:29;;;;;;;69.05;11.85;;;3.70;99.90;;;;;;5090678;28;20670;-36
2020/12/01 12:34:59;;;;;;;81.57;13.80;;;3.80;99.90;;;;;;5089627;28;20204;-35
2020/12/01 12:37:30;;;;;;;39.92;11.52;;;3.80;99.90;;;;;;5064648;28;20646;-37
2020/12/01 12:40:00;;;;;;;45.28;10.48;;;3.80;99.90;;;;;;5066747;28;20203;-36
2020/12/01 12:42:32;;;;;;;50.28;11.63;;;3.80;99.90;;;;;;5082762;28;20229;-38
2020/12/01 12:45:02;;;;;;;72.43;13.10;;;3.90;99.90;;;;;;5073299;28;20185;-39
2020/12/01 12:47:32;;;;;;;41.80;11.02;;;3.90;99.90;;;;;;5072894;28;20366;-33
2020/12/01 12:50:03;;;;;;;81.57;13.43;;;3.80;99.90;;;;;;5058403;28;20182;-33
2020/12/01 12:52:33;;;;;;;81.03;13.38;;;3.90;99.90;;;;;;5079655;28;20250;-37
2020/12/01 12:55:04;;;;;;;49.45;11.18;;;3.80;99.90;;;;;;5089922;28;20262;-36
2020/12/01 12:57:36;;;;;;;194.45;19.65;;;3.80;99.90;;;;;;5092611;28;20189;-37
2020/12/01 13:00:10;;;;;;;69.22;15.48;;;3.70;99.90;;;;;;5068901;28;20244;-35
2020/12/01 13:02:40;;;;;;;56.28;13.15;;;3.70;99.90;;;;;;5067113;28;20809;-37
2020/12/01 13:05:11;;;;;;;67.60;13.63;;;3.80;99.90;;;;;;5075155;28;20216;-35
2020/12/01 13:07:55;;;;;;;72.70;13.50;;;3.80;99.90;;;;;;5071845;28;20217;-38
2020/12/01 13:10:25;;;;;;;10.05;8.38;;;3.90;99.90;;;;;;5073835;28;20315;-37
2020/12/01 13:12:57;;;;;;;19.33;8.73;;;3.90;99.90;;;;;;5069740;28;20185;-35
2020/12/01 13:15:27;;;;;;;49.88;12.43;;;3.90;99.90;;;;;;5066532;28;20185;-38
2020/12/01 13:18:01;;;;;;;54.75;12.45;;;3.90;99.90;;;;;;5078089;28;20234;-35
2020/12/01 13:20:33;;;;;;;51.20;11.07;;;3.90;99.90;;;;;;5060246;28;20284;-36
2020/12/01 13:23:03;;;;;;;39.83;12.20;;;3.90;99.90;;;;;;5052302;28;20194;-35
2020/12/01 13:25:34;;;;;;;17.20;10.02;;;3.90;99.90;;;;;;5083418;28;20197;-37
2020/12/01 13:28:05;;;;;;;37.97;11.43;;;3.90;99.90;;;;;;5078230;28;20658;-35
2020/12/01 13:30:35;;;;;;;29.25;12.23;;;3.90;99.90;;;;;;5073244;28;20194;-37
2020/12/01 13:33:05;;;;;;;34.53;11.02;;;3.90;99.90;;;;;;5071512;28;20225;-39
2020/12/01 13:35:36;;;;;;;25.58;9.85;;;3.80;99.90;;;;;;5067336;28;20507;-36
2020/12/01 13:38:06;;;;;;;41.60;11.93;;;3.90;99.90;;;;;;5077390;28;20197;-35
2020/12/01 13:40:36;;;;;;;64.63;12.13;;;4.00;99.90;;;;;;5087006;28;20342;-34
2020/12/01 13:43:07;;;;;;;43.50;11.63;;;4.10;99.90;;;;;;5080872;28;20228;-37
2020/12/01 13:45:38;;;;;;;40.88;12.35;;;3.90;99.90;;;;;;5069040;28;20198;-37
2020/12/01 13:48:08;;;;;;;25.40;9.88;;;3.80;99.90;;;;;;5069315;28;20245;-38
2020/12/01 13:50:38;;;;;;;27.17;11.68;;;3.80;99.90;;;;;;5081446;28;20280;-34